Caldes de Montbui, Spain
Current Conditions -  °F | °C
As of 7:00 AM on Saturday 29 Nov 2014 (Local Time) from LEBL Reporting Station
Scattered Clouds Scattered Clouds  
Wind Chill: 64°   Ceiling: Unl
Heat Index: 64°   Visibility: 4mi
Dew Point: 63°   Wind: 14mph
Humidity: 94%   Direction: 100°E
Pressure: 29.44"   Gusts: NA
Location:  41.63°N, 2.17°E
Report Text: LEBL 290600Z 10012KT 6000 FEW014 SCT030 18/17 Q0997 NOSIG
Loading
Personal Weather Stations






























Interactive Weather Map New forecast layout! Learn more

10-Day Weather Forecast

Advertisements
Track Severe Weather on mobile